Time;durP1;ratioP1;P1;durP2;ratioP2;P2;SDS_P1;SDS_P2;PMS_P1;PMS_P2;Temp;Humidity;BMP_temperature;BMP_pressure;BME280_temperature;BME280_humidity;BME280_pressure;Samples;Min_cycle;Max_cycle;Signal;HPM_P1;HPM_P2
2021/04/03 00:01:33;;;;;;;17.25;3.53;;;;;;;;;;5015174;28;20041;-64
2021/04/03 00:04:18;;;;;;;23.17;4.72;;;;;;;;;;5016286;28;20046;-63
2021/04/03 00:07:04;;;;;;;20.88;3.80;;;;;;;;;;5015836;28;20509;-64
2021/04/03 00:09:49;;;;;;;23.45;5.20;;;;;;;;;;5016179;28;20050;-62
2021/04/03 00:12:35;;;;;;;26.52;4.45;;;;;;;;;;5016496;28;20053;-64
2021/04/03 00:15:20;;;;;;;21.00;4.00;;;;;;;;;;5013999;28;20038;-64
2021/04/03 00:18:05;;;;;;;22.90;4.88;;;;;;;;;;5015945;28;20070;-63
2021/04/03 00:20:51;;;;;;;19.40;3.75;;;;;;;;;;5014722;28;20045;-64
2021/04/03 00:23:36;;;;;;;21.70;4.25;;;;;;;;;;5015331;28;20212;-63
2021/04/03 00:26:21;;;;;;;25.42;5.28;;;;;;;;;;5013788;28;20053;-63
2021/04/03 00:29:06;;;;;;;24.52;5.65;;;;;;;;;;5014684;28;20045;-62
2021/04/03 00:31:52;;;;;;;28.35;4.53;;;;;;;;;;5013805;28;20053;-63
2021/04/03 00:34:37;;;;;;;18.38;3.38;;;;;;;;;;5013628;28;20058;-62
2021/04/03 00:37:23;;;;;;;23.98;5.15;;;;;;;;;;5014377;28;20042;-62
2021/04/03 00:40:15;;;;;;;23.83;4.47;;;;;;;;;;5014101;28;20119;-62
2021/04/03 00:43:02;;;;;;;29.77;5.68;;;;;;;;;;5013676;28;20049;-63
2021/04/03 00:45:48;;;;;;;28.20;6.03;;;;;;;;;;5014214;28;20054;-62
2021/04/03 00:48:34;;;;;;;28.13;5.63;;;;;;;;;;5013173;28;20045;-63
2021/04/03 00:51:20;;;;;;;27.95;5.43;;;;;;;;;;5013889;28;20057;-63
2021/04/03 00:54:05;;;;;;;34.88;5.68;;;;;;;;;;5014159;28;20053;-63
2021/04/03 00:56:50;;;;;;;31.10;6.10;;;;;;;;;;5012911;28;20560;-63
2021/04/03 00:59:37;;;;;;;29.05;7.20;;;;;;;;;;5013722;28;20053;-63
2021/04/03 01:02:23;;;;;;;28.45;6.95;;;;;;;;;;5011970;28;20422;-64
2021/04/03 01:05:14;;;;;;;28.73;4.10;;;;;;;;;;5007868;28;20066;-63
2021/04/03 01:08:01;;;;;;;23.90;4.95;;;;;;;;;;5000587;28;20042;-62
2021/04/03 01:10:49;;;;;;;29.17;5.47;;;;;;;;;;5013817;28;20129;-63
2021/04/03 01:13:54;;;;;;;22.05;6.25;;;;;;;;;;4998612;28;20042;-63
2021/04/03 01:16:51;;;;;;;22.85;5.57;;;;;;;;;;5013651;28;20053;-63
2021/04/03 01:19:57;;;;;;;31.75;7.03;;;;;;;;;;4999495;28;20078;-62
2021/04/03 01:22:53;;;;;;;27.02;5.00;;;;;;;;;;5012702;28;20052;-63
2021/04/03 01:25:47;;;;;;;24.70;5.15;;;;;;;;;;5012000;28;20038;-62
2021/04/03 01:28:54;;;;;;;39.22;6.25;;;;;;;;;;4999021;28;20049;-62
2021/04/03 01:31:41;;;;;;;36.92;7.53;;;;;;;;;;4998750;28;20410;-63
2021/04/03 01:34:28;;;;;;;29.65;4.95;;;;;;;;;;5012326;28;20074;-63
2021/04/03 01:37:16;;;;;;;26.60;5.07;;;;;;;;;;5012402;28;20057;-63
2021/04/03 01:40:02;;;;;;;32.92;5.93;;;;;;;;;;5011510;28;20609;-62
2021/04/03 01:42:54;;;;;;;31.83;6.05;;;;;;;;;;5011820;28;20153;-62
2021/04/03 01:45:41;;;;;;;41.53;6.53;;;;;;;;;;4992206;28;20388;-62
2021/04/03 01:48:28;;;;;;;28.98;5.53;;;;;;;;;;4992539;28;20057;-62
2021/04/03 01:51:13;;;;;;;31.30;6.78;;;;;;;;;;4993040;28;20046;-62
2021/04/03 01:53:58;;;;;;;23.85;6.78;;;;;;;;;;4995899;28;20048;-63
2021/04/03 01:56:45;;;;;;;35.95;5.80;;;;;;;;;;4997218;28;20050;-63
2021/04/03 01:59:32;;;;;;;32.15;5.97;;;;;;;;;;4978717;28;20042;-63
2021/04/03 02:02:19;;;;;;;28.33;5.45;;;;;;;;;;4986574;28;20133;-62
2021/04/03 02:05:04;;;;;;;36.90;6.07;;;;;;;;;;5010815;28;20055;-63
2021/04/03 02:07:50;;;;;;;27.58;5.70;;;;;;;;;;4992380;28;20046;-63
2021/04/03 02:10:39;;;;;;;34.90;7.18;;;;;;;;;;5017959;28;20049;-63
2021/04/03 02:13:24;;;;;;;36.38;7.75;;;;;;;;;;4992135;28;20049;-63
2021/04/03 02:16:14;;;;;;;32.28;6.38;;;;;;;;;;4977946;28;20453;-63
2021/04/03 02:19:02;;;;;;;39.83;8.32;;;;;;;;;;4994055;28;20043;-62
2021/04/03 02:21:48;;;;;;;29.40;5.10;;;;;;;;;;5024360;28;20054;-62
2021/04/03 02:24:34;;;;;;;45.08;6.82;;;;;;;;;;5012377;28;20505;-63
2021/04/03 02:27:19;;;;;;;32.22;5.50;;;;;;;;;;5012486;28;20080;-62
2021/04/03 02:30:18;;;;;;;34.22;6.75;;;;;;;;;;5012524;28;20074;-62
2021/04/03 02:33:04;;;;;;;36.80;8.10;;;;;;;;;;5012217;28;20049;-62
2021/04/03 02:35:52;;;;;;;44.70;7.28;;;;;;;;;;5012370;28;20050;-63
2021/04/03 02:38:37;;;;;;;38.58;6.65;;;;;;;;;;5011481;28;20418;-63
2021/04/03 02:41:31;;;;;;;42.42;7.57;;;;;;;;;;4997974;28;20128;-63
2021/04/03 02:44:21;;;;;;;34.15;5.90;;;;;;;;;;5012352;28;20049;-63
2021/04/03 02:47:16;;;;;;;43.42;9.15;;;;;;;;;;5012118;28;20058;-63
2021/04/03 02:50:06;;;;;;;38.05;7.25;;;;;;;;;;5009152;28;20053;-63
2021/04/03 02:52:52;;;;;;;40.50;6.10;;;;;;;;;;5010645;28;20069;-63
2021/04/03 02:55:39;;;;;;;34.47;7.43;;;;;;;;;;4997519;28;20042;-63
2021/04/03 02:58:25;;;;;;;35.63;6.95;;;;;;;;;;5012254;28;20054;-63
2021/04/03 03:01:11;;;;;;;35.92;7.25;;;;;;;;;;4976408;28;20054;-63
2021/04/03 03:04:00;;;;;;;45.33;7.22;;;;;;;;;;4978282;28;20054;-62
2021/04/03 03:06:49;;;;;;;33.15;7.07;;;;;;;;;;4992444;28;20418;-63
2021/04/03 03:09:34;;;;;;;38.80;6.72;;;;;;;;;;4989492;28;20050;-62
2021/04/03 03:12:24;;;;;;;38.42;8.55;;;;;;;;;;5010866;28;20049;-62
2021/04/03 03:15:12;;;;;;;54.00;8.52;;;;;;;;;;4997469;28;20054;-62
2021/04/03 03:17:58;;;;;;;46.85;8.48;;;;;;;;;;4997277;28;20101;-63
2021/04/03 03:20:45;;;;;;;41.88;10.32;;;;;;;;;;4990723;28;20419;-63
2021/04/03 03:23:33;;;;;;;34.90;6.95;;;;;;;;;;4992888;28;20042;-63
2021/04/03 03:26:19;;;;;;;45.63;8.55;;;;;;;;;;4992652;28;20050;-63
2021/04/03 03:29:06;;;;;;;40.17;7.05;;;;;;;;;;4996690;28;20507;-63
2021/04/03 03:31:52;;;;;;;42.05;7.10;;;;;;;;;;5014653;28;20117;-63
2021/04/03 03:34:43;;;;;;;43.88;7.53;;;;;;;;;;5015289;28;20053;-63
2021/04/03 03:37:29;;;;;;;41.20;7.53;;;;;;;;;;5016082;28;20054;-64
2021/04/03 03:40:15;;;;;;;56.47;11.27;;;;;;;;;;5015270;28;20049;-63
2021/04/03 03:43:02;;;;;;;52.45;8.00;;;;;;;;;;5014513;28;20049;-63
2021/04/03 03:45:51;;;;;;;41.72;8.57;;;;;;;;;;5014589;28;20082;-63
2021/04/03 03:48:38;;;;;;;39.05;7.18;;;;;;;;;;5000997;28;20115;-63
2021/04/03 03:51:28;;;;;;;51.13;8.68;;;;;;;;;;5013972;28;20135;-63
2021/04/03 03:54:22;;;;;;;47.13;10.48;;;;;;;;;;5014211;28;20053;-63
2021/04/03 03:57:07;;;;;;;34.20;8.07;;;;;;;;;;5014251;28;20147;-63
2021/04/03 03:59:53;;;;;;;35.13;6.90;;;;;;;;;;5013931;28;20045;-63
2021/04/03 04:02:39;;;;;;;35.63;7.30;;;;;;;;;;5013392;28;20132;-63
2021/04/03 04:05:24;;;;;;;56.53;10.70;;;;;;;;;;5015206;28;20100;-63
2021/04/03 04:08:20;;;;;;;52.53;8.77;;;;;;;;;;5001056;28;20524;-63
2021/04/03 04:11:08;;;;;;;39.57;8.50;;;;;;;;;;5012933;28;20308;-63
2021/04/03 04:13:54;;;;;;;37.15;8.52;;;;;;;;;;5014010;28;20513;-63
2021/04/03 04:16:48;;;;;;;58.95;8.65;;;;;;;;;;5013928;28;20081;-63
2021/04/03 04:19:34;;;;;;;47.13;7.50;;;;;;;;;;5000105;28;20502;-63
2021/04/03 04:22:21;;;;;;;44.55;7.68;;;;;;;;;;5013860;28;20054;-63
2021/04/03 04:25:08;;;;;;;43.47;8.32;;;;;;;;;;5014024;28;20045;-64
2021/04/03 04:27:54;;;;;;;52.58;10.57;;;;;;;;;;5013827;28;20042;-64
2021/04/03 04:30:39;;;;;;;41.85;7.63;;;;;;;;;;5013437;28;20120;-63
2021/04/03 04:33:28;;;;;;;38.08;8.13;;;;;;;;;;4999503;28;20074;-62
2021/04/03 04:36:14;;;;;;;40.70;8.02;;;;;;;;;;5014391;28;20042;-62
2021/04/03 04:38:59;;;;;;;46.38;8.20;;;;;;;;;;5013380;28;20046;-63
2021/04/03 04:41:47;;;;;;;55.45;10.25;;;;;;;;;;5014114;28;20068;-62
2021/04/03 04:44:33;;;;;;;48.00;7.78;;;;;;;;;;4993902;28;20042;-63
2021/04/03 04:47:19;;;;;;;44.47;8.88;;;;;;;;;;4993757;28;20178;-62
2021/04/03 04:50:07;;;;;;;45.25;9.02;;;;;;;;;;4994366;28;20069;-62
2021/04/03 04:52:52;;;;;;;44.28;9.98;;;;;;;;;;5055228;23;20505;-64
2021/04/03 04:55:43;;;;;;;38.47;7.78;;;;;;;;;;5018865;28;20045;-62
2021/04/03 04:58:29;;;;;;;46.63;9.05;;;;;;;;;;5026471;28;20081;-62
2021/04/03 05:01:15;;;;;;;45.85;7.55;;;;;;;;;;5001306;28;20045;-63
2021/04/03 05:04:05;;;;;;;39.95;8.73;;;;;;;;;;5006736;28;20046;-63
2021/04/03 05:06:50;;;;;;;29.88;6.57;;;;;;;;;;4999261;28;20058;-63
2021/04/03 05:09:35;;;;;;;43.20;8.10;;;;;;;;;;5013777;28;20108;-63
2021/04/03 05:12:20;;;;;;;52.70;9.80;;;;;;;;;;5006820;28;20038;-62
2021/04/03 05:15:06;;;;;;;51.42;9.02;;;;;;;;;;5022023;28;20038;-63
2021/04/03 05:17:51;;;;;;;43.25;7.90;;;;;;;;;;5023955;28;20145;-63
2021/04/03 05:20:37;;;;;;;37.38;7.18;;;;;;;;;;5022078;28;20048;-63
2021/04/03 05:23:22;;;;;;;49.28;8.50;;;;;;;;;;5021934;28;20042;-62
2021/04/03 05:26:08;;;;;;;51.88;9.80;;;;;;;;;;5023699;28;20041;-63
2021/04/03 05:28:53;;;;;;;38.88;7.65;;;;;;;;;;5013646;28;20054;-62
2021/04/03 05:31:39;;;;;;;44.72;8.02;;;;;;;;;;5013081;28;20141;-63
2021/04/03 05:34:24;;;;;;;43.33;8.55;;;;;;;;;;5013095;28;20069;-62
2021/04/03 05:37:09;;;;;;;48.63;9.85;;;;;;;;;;5013349;28;20052;-63
2021/04/03 05:39:54;;;;;;;47.67;10.07;;;;;;;;;;5013010;28;20057;-63
2021/04/03 05:42:40;;;;;;;47.08;8.40;;;;;;;;;;5013331;28;20125;-63
2021/04/03 05:45:26;;;;;;;48.13;9.98;;;;;;;;;;5011808;28;20045;-62
2021/04/03 05:48:11;;;;;;;44.80;8.25;;;;;;;;;;4998475;28;20128;-63
2021/04/03 05:50:59;;;;;;;54.53;9.02;;;;;;;;;;5012891;28;20054;-62
2021/04/03 05:53:45;;;;;;;44.47;8.93;;;;;;;;;;5013190;28;20161;-62
2021/04/03 05:56:30;;;;;;;39.85;8.30;;;;;;;;;;5013028;28;20049;-62
2021/04/03 05:59:15;;;;;;;37.75;6.78;;;;;;;;;;5032750;28;20049;-62
2021/04/03 06:02:01;;;;;;;54.85;9.27;;;;;;;;;;5016453;28;20038;-62
2021/04/03 06:04:46;;;;;;;54.53;9.27;;;;;;;;;;5012909;28;20046;-61
2021/04/03 06:07:31;;;;;;;42.03;8.05;;;;;;;;;;4998132;28;20148;-62
2021/04/03 06:10:16;;;;;;;44.40;8.63;;;;;;;;;;5012493;28;20052;-62
2021/04/03 06:13:02;;;;;;;38.08;9.43;;;;;;;;;;5020727;28;20132;-62
2021/04/03 06:15:47;;;;;;;32.97;7.57;;;;;;;;;;5015851;28;20499;-62
2021/04/03 06:18:32;;;;;;;38.75;7.70;;;;;;;;;;5032524;28;20053;-62
2021/04/03 06:21:18;;;;;;;39.78;8.20;;;;;;;;;;5032015;28;20052;-62
2021/04/03 06:24:04;;;;;;;38.08;7.32;;;;;;;;;;5032190;28;20504;-62
2021/04/03 06:27:02;;;;;;;32.90;7.10;;;;;;;;;;5031213;28;20049;-62
2021/04/03 06:29:50;;;;;;;36.10;6.45;;;;;;;;;;5032008;28;20045;-62
2021/04/03 06:32:36;;;;;;;49.67;9.02;;;;;;;;;;5020856;28;20061;-61
2021/04/03 06:35:23;;;;;;;36.35;7.03;;;;;;;;;;5012527;28;20180;-62
2021/04/03 06:38:21;;;;;;;38.08;7.53;;;;;;;;;;5029125;28;20405;-62
2021/04/03 06:41:19;;;;;;;32.03;5.75;;;;;;;;;;5031764;28;20041;-61
2021/04/03 06:44:05;;;;;;;38.13;8.00;;;;;;;;;;5032061;28;20416;-62
2021/04/03 06:46:50;;;;;;;44.15;7.32;;;;;;;;;;5016784;28;20512;-62
2021/04/03 06:49:37;;;;;;;32.65;6.70;;;;;;;;;;4997164;28;20042;-62
2021/04/03 06:52:24;;;;;;;40.08;7.32;;;;;;;;;;5013204;28;20057;-62
2021/04/03 06:55:12;;;;;;;23.92;5.47;;;;;;;;;;5011848;28;20049;-63
2021/04/03 06:57:58;;;;;;;34.88;6.82;;;;;;;;;;5031707;28;20568;-62
2021/04/03 07:00:43;;;;;;;37.25;8.13;;;;;;;;;;5010962;28;20125;-61
2021/04/03 07:03:28;;;;;;;36.13;5.95;;;;;;;;;;5002003;28;20065;-62
2021/04/03 07:06:13;;;;;;;30.17;6.13;;;;;;;;;;5020321;28;20042;-62
2021/04/03 07:08:59;;;;;;;31.85;6.75;;;;;;;;;;5001493;28;20054;-62
2021/04/03 07:11:45;;;;;;;38.28;8.68;;;;;;;;;;5015907;28;20054;-62
2021/04/03 07:14:31;;;;;;;36.67;8.05;;;;;;;;;;5001483;28;20050;-62
2021/04/03 07:17:17;;;;;;;41.58;6.88;;;;;;;;;;5026475;28;20412;-63
2021/04/03 07:20:02;;;;;;;33.83;7.47;;;;;;;;;;5020697;28;20084;-63
2021/04/03 07:22:48;;;;;;;31.70;7.80;;;;;;;;;;5020749;28;20068;-62
2021/04/03 07:25:37;;;;;;;35.33;7.40;;;;;;;;;;5035625;28;20041;-62
2021/04/03 07:28:22;;;;;;;40.85;7.50;;;;;;;;;;5017315;28;20497;-61
2021/04/03 07:31:07;;;;;;;38.45;6.78;;;;;;;;;;5015528;28;20046;-62
2021/04/03 07:33:53;;;;;;;30.17;7.55;;;;;;;;;;5015794;28;20050;-62
2021/04/03 07:36:39;;;;;;;37.80;7.60;;;;;;;;;;5000242;28;20069;-62
2021/04/03 07:39:38;;;;;;;41.85;7.35;;;;;;;;;;5035287;28;20456;-62
2021/04/03 07:42:33;;;;;;;32.80;5.47;;;;;;;;;;5035051;28;20037;-62
2021/04/03 07:45:30;;;;;;;36.53;6.20;;;;;;;;;;5035113;28;20485;-62
2021/04/03 07:48:35;;;;;;;40.92;8.60;;;;;;;;;;5033955;28;20096;-62
2021/04/03 07:51:23;;;;;;;32.92;8.77;;;;;;;;;;5034635;28;20050;-62
2021/04/03 07:54:12;;;;;;;32.75;6.57;;;;;;;;;;5034988;28;20559;-62
2021/04/03 07:56:58;;;;;;;31.67;6.32;;;;;;;;;;5034774;28;20556;-62
2021/04/03 07:59:44;;;;;;;32.08;8.65;;;;;;;;;;5034478;28;20108;-62
2021/04/03 08:02:30;;;;;;;43.75;7.25;;;;;;;;;;5034822;28;20042;-62
2021/04/03 08:05:15;;;;;;;34.25;7.43;;;;;;;;;;5034894;28;20045;-62
2021/04/03 08:08:01;;;;;;;35.15;7.22;;;;;;;;;;5018670;28;20567;-62
2021/04/03 08:10:46;;;;;;;31.65;5.97;;;;;;;;;;5034605;28;20049;-62
2021/04/03 08:13:32;;;;;;;28.40;6.25;;;;;;;;;;5018876;28;20128;-62
2021/04/03 08:16:18;;;;;;;27.65;6.25;;;;;;;;;;5019793;28;20529;-62
2021/04/03 08:19:03;;;;;;;27.23;5.85;;;;;;;;;;5025154;28;20049;-62
2021/04/03 08:21:48;;;;;;;34.25;7.75;;;;;;;;;;5014574;28;20042;-62
2021/04/03 08:24:34;;;;;;;28.65;6.97;;;;;;;;;;5014652;28;20042;-62
2021/04/03 08:27:19;;;;;;;28.90;4.93;;;;;;;;;;5014644;28;20050;-62
2021/04/03 08:30:21;;;;;;;37.35;8.50;;;;;;;;;;5020927;28;20064;-62
2021/04/03 08:33:07;;;;;;;26.98;6.57;;;;;;;;;;5014406;28;20498;-62
2021/04/03 08:35:52;;;;;;;28.88;5.90;;;;;;;;;;5014511;28;20497;-62
2021/04/03 08:38:38;;;;;;;22.17;5.47;;;;;;;;;;5014442;28;20176;-62
2021/04/03 08:41:24;;;;;;;29.02;7.13;;;;;;;;;;5033793;28;20045;-62
2021/04/03 08:44:16;;;;;;;37.63;6.63;;;;;;;;;;5034321;28;20046;-62
2021/04/03 08:47:02;;;;;;;30.10;5.93;;;;;;;;;;5034165;28;20057;-62
2021/04/03 08:49:47;;;;;;;29.25;6.80;;;;;;;;;;5026778;28;20046;-62
2021/04/03 08:52:32;;;;;;;23.10;4.90;;;;;;;;;;5013990;28;20042;-62
2021/04/03 08:55:25;;;;;;;25.90;6.10;;;;;;;;;;5014125;28;20053;-62
2021/04/03 08:58:11;;;;;;;20.15;5.30;;;;;;;;;;5013939;28;20038;-62
2021/04/03 09:00:56;;;;;;;21.50;4.95;;;;;;;;;;4998643;28;20083;-62
2021/04/03 09:03:43;;;;;;;20.65;4.88;;;;;;;;;;4999499;28;20084;-62
2021/04/03 09:06:47;;;;;;;25.65;5.63;;;;;;;;;;5013861;28;20494;-62
2021/04/03 09:09:32;;;;;;;24.90;6.22;;;;;;;;;;5014560;28;20045;-61
2021/04/03 09:12:17;;;;;;;20.88;4.80;;;;;;;;;;5026540;28;20054;-62
2021/04/03 09:15:03;;;;;;;20.52;4.57;;;;;;;;;;4999075;28;20128;-62
2021/04/03 09:17:55;;;;;;;29.52;5.75;;;;;;;;;;5013744;28;20046;-62
2021/04/03 09:20:47;;;;;;;23.70;5.28;;;;;;;;;;4997441;28;20045;-62
2021/04/03 09:23:40;;;;;;;28.17;5.43;;;;;;;;;;5013519;28;20042;-62
2021/04/03 09:26:31;;;;;;;18.23;4.80;;;;;;;;;;5013645;28;20046;-62
2021/04/03 09:29:17;;;;;;;15.63;5.05;;;;;;;;;;5013452;28;20179;-63
2021/04/03 09:32:06;;;;;;;20.50;5.45;;;;;;;;;;5018024;28;20069;-63
2021/04/03 09:35:02;;;;;;;24.33;5.07;;;;;;;;;;5013347;28;20509;-63
2021/04/03 09:37:56;;;;;;;30.20;5.40;;;;;;;;;;4998363;28;20046;-63
2021/04/03 09:40:42;;;;;;;23.83;4.50;;;;;;;;;;5013148;28;20046;-63
2021/04/03 09:43:40;;;;;;;22.85;5.32;;;;;;;;;;5013169;28;20510;-63
2021/04/03 09:46:25;;;;;;;24.90;6.22;;;;;;;;;;5013179;28;20045;-63
2021/04/03 09:49:11;;;;;;;24.80;3.78;;;;;;;;;;5013225;28;20045;-63
2021/04/03 09:51:59;;;;;;;20.80;5.15;;;;;;;;;;5017446;28;20045;-63
2021/04/03 09:54:44;;;;;;;24.83;6.25;;;;;;;;;;5032645;28;20049;-63
2021/04/03 09:57:30;;;;;;;20.35;4.95;;;;;;;;;;5021536;28;20050;-63
2021/04/03 10:00:15;;;;;;;19.50;4.18;;;;;;;;;;5012681;28;20085;-63
2021/04/03 10:03:01;;;;;;;23.23;4.93;;;;;;;;;;5012454;28;20050;-63
2021/04/03 10:05:46;;;;;;;23.85;5.47;;;;;;;;;;5012878;28;20057;-63
2021/04/03 10:08:31;;;;;;;21.23;5.18;;;;;;;;;;5012772;28;20049;-63
2021/04/03 10:11:17;;;;;;;30.15;5.88;;;;;;;;;;5012211;28;20510;-63
2021/04/03 10:14:02;;;;;;;22.75;6.30;;;;;;;;;;5028996;28;20049;-63
2021/04/03 10:16:47;;;;;;;18.50;4.45;;;;;;;;;;5032376;28;20556;-63
2021/04/03 10:19:33;;;;;;;21.05;4.45;;;;;;;;;;5031957;28;20421;-63
2021/04/03 10:22:18;;;;;;;23.63;5.75;;;;;;;;;;5031197;28;20045;-63
2021/04/03 10:25:04;;;;;;;27.92;6.68;;;;;;;;;;5032383;28;20053;-63
2021/04/03 10:27:49;;;;;;;23.05;4.43;;;;;;;;;;5032194;28;20046;-63
2021/04/03 10:30:34;;;;;;;20.15;4.80;;;;;;;;;;5017073;28;20132;-63
2021/04/03 10:33:19;;;;;;;19.17;4.32;;;;;;;;;;5030756;28;20076;-63
2021/04/03 10:36:05;;;;;;;12.32;3.58;;;;;;;;;;5031277;28;20041;-64
2021/04/03 10:38:50;;;;;;;12.32;4.15;;;;;;;;;;5031987;28;20041;-64
2021/04/03 10:41:37;;;;;;;17.23;4.25;;;;;;;;;;5031931;28;20046;-64
2021/04/03 10:44:22;;;;;;;24.65;5.25;;;;;;;;;;5028314;28;20050;-63
2021/04/03 10:47:07;;;;;;;22.20;5.15;;;;;;;;;;5014495;28;20054;-64
2021/04/03 10:49:53;;;;;;;20.77;5.07;;;;;;;;;;5011798;28;20050;-62
2021/04/03 10:52:38;;;;;;;21.92;5.60;;;;;;;;;;5062996;23;20050;-62
2021/04/03 10:55:23;;;;;;;17.83;4.13;;;;;;;;;;5008557;28;21100;-63
2021/04/03 10:58:11;;;;;;;21.17;4.20;;;;;;;;;;5000583;28;20038;-63
2021/04/03 11:00:57;;;;;;;22.90;4.85;;;;;;;;;;4998644;28;20046;-64
2021/04/03 11:03:43;;;;;;;21.17;4.88;;;;;;;;;;4998200;28;20085;-64
2021/04/03 11:06:29;;;;;;;21.52;4.55;;;;;;;;;;5002130;28;20042;-64
2021/04/03 11:09:14;;;;;;;16.48;4.22;;;;;;;;;;5004307;28;20046;-64
2021/04/03 11:12:00;;;;;;;17.63;5.90;;;;;;;;;;4999863;28;20050;-62
2021/04/03 11:14:45;;;;;;;16.05;3.83;;;;;;;;;;4999356;28;20055;-62
2021/04/03 11:17:30;;;;;;;17.98;4.25;;;;;;;;;;5004870;28;20046;-62
2021/04/03 11:20:16;;;;;;;18.17;4.85;;;;;;;;;;5005311;28;20510;-63
2021/04/03 11:23:01;;;;;;;22.35;4.07;;;;;;;;;;5000807;28;20054;-64
2021/04/03 11:25:47;;;;;;;24.23;5.60;;;;;;;;;;5001298;28;20509;-62
2021/04/03 11:28:32;;;;;;;20.55;3.92;;;;;;;;;;5001007;28;20042;-63
2021/04/03 11:31:17;;;;;;;15.52;4.25;;;;;;;;;;5003176;28;20050;-63
2021/04/03 11:34:03;;;;;;;14.10;3.80;;;;;;;;;;4995237;28;20054;-62
2021/04/03 11:36:48;;;;;;;15.07;3.72;;;;;;;;;;4994479;28;20050;-62
2021/04/03 11:39:33;;;;;;;15.93;4.00;;;;;;;;;;4991344;28;20428;-62
2021/04/03 11:42:19;;;;;;;10.45;3.45;;;;;;;;;;4998157;28;20042;-63
2021/04/03 11:45:06;;;;;;;26.85;5.35;;;;;;;;;;4992357;28;20509;-63
2021/04/03 11:47:52;;;;;;;18.55;3.67;;;;;;;;;;4998625;28;20049;-62
2021/04/03 11:50:37;;;;;;;16.40;3.92;;;;;;;;;;4960989;28;20055;-63
